Terminal Aerodrome Forecast
Issued by NWS

Home | Current Version | Previous Version | Text Only | Print | Product List | Glossary On
Versions: 1 2 3 4 5 6 7 8 9 10 11 12 13 14 15 16
000
FTUS44 KLZK 231200 AAA
TAFPBF
TAF AMD
KPBF 231259Z 2313/2412 04005KT P6SM SCT025 BKN040
     FM231700 12008KT P6SM SCT050 BKN100 OVC250
     FM232000 12008KT P6SM VCSH BKN050 OVC100=

USA.gov is the U.S. government's official web portal to all federal, state and local government web resources and services.